sensor_id;sensor_type;location;lat;lon;timestamp;pressure;altitude;pressure_sealevel;temperature;humidity
63903;BME280;50072;50.678;13.938;2023-08-31T00:00:30;98707.63;;;11.36;100.00
63903;BME280;50072;50.678;13.938;2023-08-31T00:03:17;98718.19;;;11.39;100.00
63903;BME280;50072;50.678;13.938;2023-08-31T00:05:43;98710.09;;;11.41;100.00
63903;BME280;50072;50.678;13.938;2023-08-31T00:08:10;98711.97;;;11.39;100.00
63903;BME280;50072;50.678;13.938;2023-08-31T00:10:37;98721.09;;;11.35;100.00
63903;BME280;50072;50.678;13.938;2023-08-31T00:13:04;98724.97;;;11.28;100.00
63903;BME280;50072;50.678;13.938;2023-08-31T00:15:30;98721.25;;;11.10;100.00
63903;BME280;50072;50.678;13.938;2023-08-31T00:17:59;98719.50;;;11.09;100.00
63903;BME280;50072;50.678;13.938;2023-08-31T00:20:24;98716.31;;;11.00;100.00
63903;BME280;50072;50.678;13.938;2023-08-31T00:22:51;98720.53;;;11.06;100.00
63903;BME280;50072;50.678;13.938;2023-08-31T00:25:16;98720.03;;;10.96;100.00
63903;BME280;50072;50.678;13.938;2023-08-31T00:27:43;98718.19;;;10.76;100.00
63903;BME280;50072;50.678;13.938;2023-08-31T00:30:10;98723.91;;;10.67;100.00
63903;BME280;50072;50.678;13.938;2023-08-31T00:32:36;98731.75;;;10.71;100.00
63903;BME280;50072;50.678;13.938;2023-08-31T00:35:02;98724.81;;;10.67;100.00
63903;BME280;50072;50.678;13.938;2023-08-31T00:37:29;98721.56;;;10.59;100.00
63903;BME280;50072;50.678;13.938;2023-08-31T00:39:55;98733.38;;;10.53;100.00
63903;BME280;50072;50.678;13.938;2023-08-31T00:42:21;98727.13;;;10.53;100.00
63903;BME280;50072;50.678;13.938;2023-08-31T00:44:47;98726.28;;;10.52;100.00
63903;BME280;50072;50.678;13.938;2023-08-31T00:47:15;98715.72;;;10.49;100.00
63903;BME280;50072;50.678;13.938;2023-08-31T00:49:41;98727.91;;;10.57;100.00
63903;BME280;50072;50.678;13.938;2023-08-31T00:52:08;98732.25;;;10.59;100.00
63903;BME280;50072;50.678;13.938;2023-08-31T00:54:36;98729.28;;;10.67;100.00
63903;BME280;50072;50.678;13.938;2023-08-31T00:57:02;98728.28;;;10.69;100.00
63903;BME280;50072;50.678;13.938;2023-08-31T00:59:30;98726.91;;;10.59;100.00
63903;BME280;50072;50.678;13.938;2023-08-31T01:02:09;98733.25;;;10.57;100.00
63903;BME280;50072;50.678;13.938;2023-08-31T01:04:48;98743.03;;;10.58;100.00
63903;BME280;50072;50.678;13.938;2023-08-31T01:10:34;98739.97;;;10.45;100.00
63903;BME280;50072;50.678;13.938;2023-08-31T01:13:19;98741.88;;;10.41;100.00
63903;BME280;50072;50.678;13.938;2023-08-31T01:15:51;98749.53;;;10.27;100.00
63903;BME280;50072;50.678;13.938;2023-08-31T01:18:20;98749.78;;;10.21;100.00
63903;BME280;50072;50.678;13.938;2023-08-31T01:20:52;98743.44;;;10.23;100.00
63903;BME280;50072;50.678;13.938;2023-08-31T01:23:22;98734.41;;;10.26;100.00
63903;BME280;50072;50.678;13.938;2023-08-31T01:25:52;98721.13;;;10.24;100.00
63903;BME280;50072;50.678;13.938;2023-08-31T01:28:18;98725.47;;;10.27;100.00
63903;BME280;50072;50.678;13.938;2023-08-31T01:30:44;98727.00;;;10.34;100.00
63903;BME280;50072;50.678;13.938;2023-08-31T01:33:10;98726.53;;;10.23;100.00
63903;BME280;50072;50.678;13.938;2023-08-31T01:35:43;98746.28;;;10.18;100.00
63903;BME280;50072;50.678;13.938;2023-08-31T01:38:11;98752.84;;;10.10;100.00
63903;BME280;50072;50.678;13.938;2023-08-31T01:40:44;98760.88;;;10.10;100.00
63903;BME280;50072;50.678;13.938;2023-08-31T01:43:11;98762.38;;;10.17;100.00
63903;BME280;50072;50.678;13.938;2023-08-31T01:45:37;98747.84;;;10.24;100.00
63903;BME280;50072;50.678;13.938;2023-08-31T01:48:05;98751.09;;;10.32;100.00
63903;BME280;50072;50.678;13.938;2023-08-31T01:50:31;98744.75;;;10.36;100.00
63903;BME280;50072;50.678;13.938;2023-08-31T01:52:57;98743.69;;;10.41;100.00
63903;BME280;50072;50.678;13.938;2023-08-31T01:55:23;98730.84;;;10.50;100.00
63903;BME280;50072;50.678;13.938;2023-08-31T01:57:49;98724.25;;;10.59;100.00
63903;BME280;50072;50.678;13.938;2023-08-31T02:00:17;98735.19;;;10.75;100.00
63903;BME280;50072;50.678;13.938;2023-08-31T02:02:43;98728.66;;;10.82;100.00
63903;BME280;50072;50.678;13.938;2023-08-31T02:05:10;98722.38;;;10.83;100.00
63903;BME280;50072;50.678;13.938;2023-08-31T02:07:36;98726.25;;;10.97;100.00
63903;BME280;50072;50.678;13.938;2023-08-31T02:10:03;98719.72;;;11.04;100.00
63903;BME280;50072;50.678;13.938;2023-08-31T02:12:32;98734.50;;;11.13;100.00
63903;BME280;50072;50.678;13.938;2023-08-31T02:14:58;98740.00;;;11.10;100.00
63903;BME280;50072;50.678;13.938;2023-08-31T02:17:26;98740.34;;;11.02;100.00
63903;BME280;50072;50.678;13.938;2023-08-31T02:19:52;98738.22;;;10.88;100.00
63903;BME280;50072;50.678;13.938;2023-08-31T02:22:17;98736.53;;;10.85;100.00
63903;BME280;50072;50.678;13.938;2023-08-31T02:24:43;98730.88;;;10.93;100.00
63903;BME280;50072;50.678;13.938;2023-08-31T02:27:10;98735.06;;;11.00;100.00
63903;BME280;50072;50.678;13.938;2023-08-31T02:29:35;98724.72;;;10.91;100.00
63903;BME280;50072;50.678;13.938;2023-08-31T02:32:04;98723.31;;;11.03;100.00
63903;BME280;50072;50.678;13.938;2023-08-31T02:34:30;98732.03;;;11.08;100.00
63903;BME280;50072;50.678;13.938;2023-08-31T02:36:56;98755.00;;;11.14;100.00
63903;BME280;50072;50.678;13.938;2023-08-31T02:39:21;98742.53;;;11.13;100.00
63903;BME280;50072;50.678;13.938;2023-08-31T02:41:47;98736.81;;;11.22;100.00
63903;BME280;50072;50.678;13.938;2023-08-31T02:44:13;98738.09;;;11.34;100.00
63903;BME280;50072;50.678;13.938;2023-08-31T02:46:39;98731.38;;;11.44;100.00
63903;BME280;50072;50.678;13.938;2023-08-31T02:49:05;98733.00;;;11.48;100.00
63903;BME280;50072;50.678;13.938;2023-08-31T02:51:31;98739.81;;;11.55;100.00
63903;BME280;50072;50.678;13.938;2023-08-31T02:53:57;98728.38;;;11.52;100.00
63903;BME280;50072;50.678;13.938;2023-08-31T02:56:23;98734.47;;;11.55;100.00
63903;BME280;50072;50.678;13.938;2023-08-31T02:58:48;98739.16;;;11.50;100.00
63903;BME280;50072;50.678;13.938;2023-08-31T03:01:15;98746.16;;;11.54;100.00
63903;BME280;50072;50.678;13.938;2023-08-31T03:03:41;98745.75;;;11.43;100.00
63903;BME280;50072;50.678;13.938;2023-08-31T03:06:09;98740.50;;;11.40;100.00
63903;BME280;50072;50.678;13.938;2023-08-31T03:08:36;98738.63;;;11.42;100.00
63903;BME280;50072;50.678;13.938;2023-08-31T03:11:03;98743.84;;;11.45;100.00
63903;BME280;50072;50.678;13.938;2023-08-31T03:13:29;98740.25;;;11.46;100.00
63903;BME280;50072;50.678;13.938;2023-08-31T03:15:55;98748.06;;;11.51;100.00
63903;BME280;50072;50.678;13.938;2023-08-31T03:18:22;98750.75;;;11.51;100.00
63903;BME280;50072;50.678;13.938;2023-08-31T03:20:48;98756.97;;;11.51;100.00
63903;BME280;50072;50.678;13.938;2023-08-31T03:23:14;98764.91;;;11.54;100.00
63903;BME280;50072;50.678;13.938;2023-08-31T03:25:40;98764.47;;;11.64;100.00
63903;BME280;50072;50.678;13.938;2023-08-31T03:28:06;98767.97;;;11.66;100.00
63903;BME280;50072;50.678;13.938;2023-08-31T03:30:32;98775.19;;;11.64;100.00
63903;BME280;50072;50.678;13.938;2023-08-31T03:32:58;98768.97;;;11.63;100.00
63903;BME280;50072;50.678;13.938;2023-08-31T03:35:24;98777.19;;;11.58;100.00
63903;BME280;50072;50.678;13.938;2023-08-31T03:37:53;98767.38;;;11.59;100.00
63903;BME280;50072;50.678;13.938;2023-08-31T03:40:19;98769.69;;;11.67;100.00
63903;BME280;50072;50.678;13.938;2023-08-31T03:42:45;98772.25;;;11.70;100.00
63903;BME280;50072;50.678;13.938;2023-08-31T03:45:11;98771.31;;;11.71;100.00
63903;BME280;50072;50.678;13.938;2023-08-31T03:47:37;98776.28;;;11.80;100.00
63903;BME280;50072;50.678;13.938;2023-08-31T03:50:05;98787.66;;;11.85;100.00
63903;BME280;50072;50.678;13.938;2023-08-31T03:52:30;98786.72;;;11.86;100.00
63903;BME280;50072;50.678;13.938;2023-08-31T03:54:56;98774.94;;;11.90;100.00
63903;BME280;50072;50.678;13.938;2023-08-31T03:57:22;98777.50;;;11.94;100.00
63903;BME280;50072;50.678;13.938;2023-08-31T03:59:48;98784.31;;;12.01;100.00
63903;BME280;50072;50.678;13.938;2023-08-31T04:02:14;98780.09;;;11.95;100.00
63903;BME280;50072;50.678;13.938;2023-08-31T04:04:40;98779.03;;;11.99;100.00
63903;BME280;50072;50.678;13.938;2023-08-31T04:07:05;98789.69;;;12.01;100.00
63903;BME280;50072;50.678;13.938;2023-08-31T04:09:32;98786.78;;;12.05;100.00
63903;BME280;50072;50.678;13.938;2023-08-31T04:11:58;98786.53;;;12.12;100.00
63903;BME280;50072;50.678;13.938;2023-08-31T04:14:27;98796.38;;;12.11;100.00
63903;BME280;50072;50.678;13.938;2023-08-31T04:16:54;98797.72;;;12.21;100.00
63903;BME280;50072;50.678;13.938;2023-08-31T04:19:20;98799.16;;;12.29;100.00
63903;BME280;50072;50.678;13.938;2023-08-31T04:21:46;98793.50;;;12.35;100.00
63903;BME280;50072;50.678;13.938;2023-08-31T04:24:12;98800.78;;;12.33;100.00
63903;BME280;50072;50.678;13.938;2023-08-31T04:26:37;98811.50;;;12.33;100.00
63903;BME280;50072;50.678;13.938;2023-08-31T04:29:03;98830.94;;;12.38;100.00
63903;BME280;50072;50.678;13.938;2023-08-31T04:31:31;98834.75;;;12.32;100.00
63903;BME280;50072;50.678;13.938;2023-08-31T04:33:58;98828.38;;;12.35;100.00
63903;BME280;50072;50.678;13.938;2023-08-31T04:36:24;98837.91;;;12.42;100.00
63903;BME280;50072;50.678;13.938;2023-08-31T04:38:51;98832.47;;;12.43;100.00
63903;BME280;50072;50.678;13.938;2023-08-31T04:41:17;98835.22;;;12.42;100.00
63903;BME280;50072;50.678;13.938;2023-08-31T04:43:43;98837.91;;;12.42;100.00
63903;BME280;50072;50.678;13.938;2023-08-31T04:46:09;98825.28;;;12.44;100.00
63903;BME280;50072;50.678;13.938;2023-08-31T04:48:35;98831.22;;;12.51;100.00
63903;BME280;50072;50.678;13.938;2023-08-31T04:51:02;98849.09;;;12.52;100.00
63903;BME280;50072;50.678;13.938;2023-08-31T04:53:29;98849.00;;;12.53;100.00
63903;BME280;50072;50.678;13.938;2023-08-31T04:55:56;98846.88;;;12.41;100.00
63903;BME280;50072;50.678;13.938;2023-08-31T04:58:22;98850.47;;;12.41;100.00
63903;BME280;50072;50.678;13.938;2023-08-31T05:00:51;98858.44;;;12.43;100.00
63903;BME280;50072;50.678;13.938;2023-08-31T05:03:17;98866.19;;;12.49;100.00
63903;BME280;50072;50.678;13.938;2023-08-31T05:05:43;98872.88;;;12.59;100.00
63903;BME280;50072;50.678;13.938;2023-08-31T05:08:11;98871.22;;;12.57;100.00
63903;BME280;50072;50.678;13.938;2023-08-31T05:10:38;98860.69;;;12.52;100.00
63903;BME280;50072;50.678;13.938;2023-08-31T05:13:07;98875.56;;;12.59;100.00
63903;BME280;50072;50.678;13.938;2023-08-31T05:15:32;98876.38;;;12.62;100.00
63903;BME280;50072;50.678;13.938;2023-08-31T05:17:59;98866.06;;;12.52;100.00
63903;BME280;50072;50.678;13.938;2023-08-31T05:20:26;98869.69;;;12.51;100.00
63903;BME280;50072;50.678;13.938;2023-08-31T05:22:53;98873.78;;;12.60;100.00
63903;BME280;50072;50.678;13.938;2023-08-31T05:25:19;98880.00;;;12.60;100.00
63903;BME280;50072;50.678;13.938;2023-08-31T05:27:46;98882.81;;;12.57;100.00
63903;BME280;50072;50.678;13.938;2023-08-31T05:30:12;98904.09;;;12.62;100.00
63903;BME280;50072;50.678;13.938;2023-08-31T05:32:40;98892.81;;;12.54;100.00
63903;BME280;50072;50.678;13.938;2023-08-31T05:35:07;98907.91;;;12.56;100.00
63903;BME280;50072;50.678;13.938;2023-08-31T05:37:35;98902.94;;;12.68;100.00
63903;BME280;50072;50.678;13.938;2023-08-31T05:40:03;98904.38;;;12.75;100.00
63903;BME280;50072;50.678;13.938;2023-08-31T05:42:36;98905.56;;;12.88;100.00
63903;BME280;50072;50.678;13.938;2023-08-31T05:45:04;98903.03;;;13.04;100.00
63903;BME280;50072;50.678;13.938;2023-08-31T05:47:31;98899.97;;;13.12;100.00
63903;BME280;50072;50.678;13.938;2023-08-31T05:49:57;98893.06;;;13.25;100.00
63903;BME280;50072;50.678;13.938;2023-08-31T05:52:23;98892.50;;;13.38;100.00
63903;BME280;50072;50.678;13.938;2023-08-31T05:54:49;98901.84;;;13.48;100.00
63903;BME280;50072;50.678;13.938;2023-08-31T05:57:20;98894.50;;;13.52;100.00
63903;BME280;50072;50.678;13.938;2023-08-31T05:59:47;98909.28;;;13.43;100.00
63903;BME280;50072;50.678;13.938;2023-08-31T06:02:15;98900.16;;;13.26;100.00
63903;BME280;50072;50.678;13.938;2023-08-31T06:04:41;98905.34;;;13.31;100.00
63903;BME280;50072;50.678;13.938;2023-08-31T06:07:07;98913.59;;;13.26;100.00
63903;BME280;50072;50.678;13.938;2023-08-31T06:09:34;98904.41;;;13.13;100.00
63903;BME280;50072;50.678;13.938;2023-08-31T06:12:00;98905.19;;;13.15;100.00
63903;BME280;50072;50.678;13.938;2023-08-31T06:14:27;98905.06;;;13.18;100.00
63903;BME280;50072;50.678;13.938;2023-08-31T06:16:54;98913.06;;;13.20;100.00
63903;BME280;50072;50.678;13.938;2023-08-31T06:19:19;98903.81;;;13.25;100.00
63903;BME280;50072;50.678;13.938;2023-08-31T06:21:47;98914.81;;;13.40;100.00
63903;BME280;50072;50.678;13.938;2023-08-31T06:24:15;98914.50;;;13.46;100.00
63903;BME280;50072;50.678;13.938;2023-08-31T06:26:41;98920.91;;;13.61;100.00
63903;BME280;50072;50.678;13.938;2023-08-31T06:29:07;98924.84;;;13.73;100.00
63903;BME280;50072;50.678;13.938;2023-08-31T06:31:36;98935.94;;;14.02;100.00
63903;BME280;50072;50.678;13.938;2023-08-31T06:34:02;98940.53;;;14.35;100.00
63903;BME280;50072;50.678;13.938;2023-08-31T06:36:30;98943.75;;;14.59;100.00
63903;BME280;50072;50.678;13.938;2023-08-31T06:38:57;98945.22;;;14.82;100.00
63903;BME280;50072;50.678;13.938;2023-08-31T06:41:23;98945.47;;;15.27;100.00
63903;BME280;50072;50.678;13.938;2023-08-31T06:43:51;98945.91;;;15.51;100.00
63903;BME280;50072;50.678;13.938;2023-08-31T06:46:19;98955.66;;;15.53;100.00
63903;BME280;50072;50.678;13.938;2023-08-31T06:48:45;98957.75;;;15.32;100.00
63903;BME280;50072;50.678;13.938;2023-08-31T06:51:11;98956.19;;;15.28;100.00
63903;BME280;50072;50.678;13.938;2023-08-31T06:53:36;98963.22;;;15.47;100.00
63903;BME280;50072;50.678;13.938;2023-08-31T06:56:03;98968.53;;;15.32;100.00
63903;BME280;50072;50.678;13.938;2023-08-31T06:58:29;98974.25;;;15.26;100.00
63903;BME280;50072;50.678;13.938;2023-08-31T07:00:55;98974.25;;;15.26;100.00
63903;BME280;50072;50.678;13.938;2023-08-31T07:03:21;98980.78;;;15.22;100.00
63903;BME280;50072;50.678;13.938;2023-08-31T07:05:49;98978.09;;;15.22;100.00
63903;BME280;50072;50.678;13.938;2023-08-31T07:08:15;98977.56;;;15.31;100.00
63903;BME280;50072;50.678;13.938;2023-08-31T07:10:41;98979.50;;;15.29;100.00
63903;BME280;50072;50.678;13.938;2023-08-31T07:13:07;98974.47;;;15.39;100.00
63903;BME280;50072;50.678;13.938;2023-08-31T07:15:33;98988.91;;;15.54;100.00
63903;BME280;50072;50.678;13.938;2023-08-31T07:17:59;98990.09;;;15.64;100.00
63903;BME280;50072;50.678;13.938;2023-08-31T07:20:25;98984.66;;;15.82;100.00
63903;BME280;50072;50.678;13.938;2023-08-31T07:22:51;98990.38;;;15.92;100.00
63903;BME280;50072;50.678;13.938;2023-08-31T07:25:17;98994.16;;;15.89;100.00
63903;BME280;50072;50.678;13.938;2023-08-31T07:27:42;98991.97;;;15.80;100.00
63903;BME280;50072;50.678;13.938;2023-08-31T07:30:09;98998.81;;;15.69;100.00
63903;BME280;50072;50.678;13.938;2023-08-31T07:32:35;99004.03;;;15.73;100.00
63903;BME280;50072;50.678;13.938;2023-08-31T07:35:01;98996.41;;;15.81;100.00
63903;BME280;50072;50.678;13.938;2023-08-31T07:37:30;99002.66;;;15.81;100.00
63903;BME280;50072;50.678;13.938;2023-08-31T07:39:56;98996.91;;;15.87;100.00
63903;BME280;50072;50.678;13.938;2023-08-31T07:42:21;99010.75;;;15.97;100.00
63903;BME280;50072;50.678;13.938;2023-08-31T07:44:47;98999.59;;;16.03;100.00
63903;BME280;50072;50.678;13.938;2023-08-31T07:47:13;99006.81;;;16.03;100.00
63903;BME280;50072;50.678;13.938;2023-08-31T07:49:39;99017.44;;;16.22;100.00
63903;BME280;50072;50.678;13.938;2023-08-31T07:52:05;99018.13;;;16.10;100.00
63903;BME280;50072;50.678;13.938;2023-08-31T07:54:31;99017.44;;;16.22;100.00
63903;BME280;50072;50.678;13.938;2023-08-31T07:56:57;99019.38;;;16.34;100.00
63903;BME280;50072;50.678;13.938;2023-08-31T07:59:23;99017.53;;;16.51;100.00
63903;BME280;50072;50.678;13.938;2023-08-31T08:01:48;99015.16;;;16.75;100.00
63903;BME280;50072;50.678;13.938;2023-08-31T08:04:14;99018.78;;;16.90;100.00
63903;BME280;50072;50.678;13.938;2023-08-31T08:06:40;99021.50;;;17.04;100.00
63903;BME280;50072;50.678;13.938;2023-08-31T08:09:07;99034.44;;;16.99;100.00
63903;BME280;50072;50.678;13.938;2023-08-31T08:11:34;99024.38;;;17.01;100.00
63903;BME280;50072;50.678;13.938;2023-08-31T08:14:01;99024.03;;;17.07;100.00
63903;BME280;50072;50.678;13.938;2023-08-31T08:16:27;99024.22;;;17.19;100.00
63903;BME280;50072;50.678;13.938;2023-08-31T08:18:53;99014.44;;;17.45;97.68
63903;BME280;50072;50.678;13.938;2023-08-31T08:21:20;99028.63;;;17.63;90.29
63903;BME280;50072;50.678;13.938;2023-08-31T08:23:47;99036.28;;;17.56;83.25
63903;BME280;50072;50.678;13.938;2023-08-31T08:26:17;99038.28;;;17.53;76.81
63903;BME280;50072;50.678;13.938;2023-08-31T08:28:43;99030.34;;;17.64;75.40
63903;BME280;50072;50.678;13.938;2023-08-31T08:31:10;99024.75;;;17.82;76.98
63903;BME280;50072;50.678;13.938;2023-08-31T08:33:36;99026.81;;;18.05;73.27
63903;BME280;50072;50.678;13.938;2023-08-31T08:36:03;99045.88;;;18.31;72.93
63903;BME280;50072;50.678;13.938;2023-08-31T08:38:29;99039.50;;;18.32;70.76
63903;BME280;50072;50.678;13.938;2023-08-31T08:40:55;99025.56;;;18.51;70.39
63903;BME280;50072;50.678;13.938;2023-08-31T08:43:25;99036.44;;;18.64;71.39
63903;BME280;50072;50.678;13.938;2023-08-31T08:45:54;99031.44;;;18.58;72.81
63903;BME280;50072;50.678;13.938;2023-08-31T08:48:26;99037.38;;;19.03;72.02
63903;BME280;50072;50.678;13.938;2023-08-31T08:50:54;99034.75;;;19.53;69.29
63903;BME280;50072;50.678;13.938;2023-08-31T08:53:20;99033.22;;;19.62;65.82
63903;BME280;50072;50.678;13.938;2023-08-31T08:55:47;99043.47;;;19.45;62.48
63903;BME280;50072;50.678;13.938;2023-08-31T08:58:15;99040.66;;;19.34;63.79
63903;BME280;50072;50.678;13.938;2023-08-31T09:00:41;99043.16;;;19.24;62.88
63903;BME280;50072;50.678;13.938;2023-08-31T09:03:09;99047.16;;;19.44;61.28
63903;BME280;50072;50.678;13.938;2023-08-31T09:05:36;99045.59;;;19.53;59.78
63903;BME280;50072;50.678;13.938;2023-08-31T09:08:09;99041.69;;;19.57;60.15
63903;BME280;50072;50.678;13.938;2023-08-31T09:10:39;99052.75;;;19.67;61.60
63903;BME280;50072;50.678;13.938;2023-08-31T09:13:11;99046.13;;;19.84;58.55
63903;BME280;50072;50.678;13.938;2023-08-31T09:15:48;99052.88;;;19.65;57.59
63903;BME280;50072;50.678;13.938;2023-08-31T09:18:22;99052.25;;;19.10;56.85
63903;BME280;50072;50.678;13.938;2023-08-31T09:20:50;99054.41;;;19.18;56.24
63903;BME280;50072;50.678;13.938;2023-08-31T09:23:17;99044.78;;;19.40;54.68
63903;BME280;50072;50.678;13.938;2023-08-31T09:25:47;99056.34;;;19.80;52.90
63903;BME280;50072;50.678;13.938;2023-08-31T09:28:16;99048.97;;;19.82;51.53
63903;BME280;50072;50.678;13.938;2023-08-31T09:30:46;99058.75;;;20.09;52.27
63903;BME280;50072;50.678;13.938;2023-08-31T09:33:15;99050.50;;;19.35;54.33
63903;BME280;50072;50.678;13.938;2023-08-31T09:35:54;99050.78;;;19.82;53.93
63903;BME280;50072;50.678;13.938;2023-08-31T09:38:23;99049.25;;;19.91;53.99
63903;BME280;50072;50.678;13.938;2023-08-31T09:40:49;99065.22;;;19.95;55.12
63903;BME280;50072;50.678;13.938;2023-08-31T09:43:23;99057.53;;;20.13;55.03
63903;BME280;50072;50.678;13.938;2023-08-31T09:45:50;99054.19;;;20.10;52.02
63903;BME280;50072;50.678;13.938;2023-08-31T09:48:20;99052.66;;;20.67;50.33
63903;BME280;50072;50.678;13.938;2023-08-31T09:50:48;99052.66;;;20.67;48.24
63903;BME280;50072;50.678;13.938;2023-08-31T09:53:18;99040.34;;;20.85;49.00
63903;BME280;50072;50.678;13.938;2023-08-31T09:55:46;99043.16;;;21.31;48.27
63903;BME280;50072;50.678;13.938;2023-08-31T09:58:18;99039.34;;;21.56;48.23
63903;BME280;50072;50.678;13.938;2023-08-31T10:00:51;99043.94;;;20.97;49.47
63903;BME280;50072;50.678;13.938;2023-08-31T10:03:20;99045.00;;;20.48;48.24
63903;BME280;50072;50.678;13.938;2023-08-31T10:05:49;99039.69;;;19.72;50.82
63903;BME280;50072;50.678;13.938;2023-08-31T10:08:16;99048.34;;;19.02;51.25
63903;BME280;50072;50.678;13.938;2023-08-31T10:10:44;99056.03;;;18.95;51.49
63903;BME280;50072;50.678;13.938;2023-08-31T10:13:11;99059.13;;;18.76;52.42
63903;BME280;50072;50.678;13.938;2023-08-31T10:15:37;99056.00;;;19.72;52.20
63903;BME280;50072;50.678;13.938;2023-08-31T10:18:06;99052.59;;;20.31;49.07
63903;BME280;50072;50.678;13.938;2023-08-31T10:20:33;99057.47;;;20.02;49.16
63903;BME280;50072;50.678;13.938;2023-08-31T10:23:04;99058.38;;;19.77;50.47
63903;BME280;50072;50.678;13.938;2023-08-31T10:28:25;99049.53;;;19.36;51.46
63903;BME280;50072;50.678;13.938;2023-08-31T10:31:09;99055.41;;;19.04;52.10
63903;BME280;50072;50.678;13.938;2023-08-31T10:33:41;99053.06;;;18.85;53.70
63903;BME280;50072;50.678;13.938;2023-08-31T10:36:19;99054.63;;;19.02;53.08
63903;BME280;50072;50.678;13.938;2023-08-31T10:41:19;99050.19;;;19.01;52.68
63903;BME280;50072;50.678;13.938;2023-08-31T10:43:55;99049.88;;;19.31;51.98
63903;BME280;50072;50.678;13.938;2023-08-31T10:48:55;99058.63;;;19.61;51.08
63903;BME280;50072;50.678;13.938;2023-08-31T10:51:25;99050.94;;;19.55;50.84
63903;BME280;50072;50.678;13.938;2023-08-31T10:54:07;99050.59;;;19.46;52.16
63903;BME280;50072;50.678;13.938;2023-08-31T10:59:22;99051.97;;;19.91;52.03
63903;BME280;50072;50.678;13.938;2023-08-31T11:02:06;99039.63;;;20.95;49.91
63903;BME280;50072;50.678;13.938;2023-08-31T11:04:52;99051.97;;;23.42;43.32
63903;BME280;50072;50.678;13.938;2023-08-31T11:07:19;99048.03;;;24.86;40.43
63903;BME280;50072;50.678;13.938;2023-08-31T11:09:49;99051.06;;;26.25;38.03
63903;BME280;50072;50.678;13.938;2023-08-31T11:12:15;99043.63;;;26.08;36.19
63903;BME280;50072;50.678;13.938;2023-08-31T11:14:41;99058.97;;;24.86;39.13
63903;BME280;50072;50.678;13.938;2023-08-31T11:17:07;99056.06;;;23.88;40.63
63903;BME280;50072;50.678;13.938;2023-08-31T11:19:34;99040.59;;;22.41;42.11
63903;BME280;50072;50.678;13.938;2023-08-31T11:22:01;99030.91;;;21.48;45.05
63903;BME280;50072;50.678;13.938;2023-08-31T11:24:33;99042.09;;;20.86;47.01
63903;BME280;50072;50.678;13.938;2023-08-31T11:27:00;99037.78;;;20.35;48.62
63903;BME280;50072;50.678;13.938;2023-08-31T11:29:30;99045.47;;;20.17;48.61
63903;BME280;50072;50.678;13.938;2023-08-31T11:31:57;99031.31;;;20.01;47.86
63903;BME280;50072;50.678;13.938;2023-08-31T11:34:28;99032.31;;;19.74;50.05
63903;BME280;50072;50.678;13.938;2023-08-31T11:36:53;99048.34;;;20.51;48.26
63903;BME280;50072;50.678;13.938;2023-08-31T11:39:24;99037.19;;;22.81;42.78
63903;BME280;50072;50.678;13.938;2023-08-31T11:41:49;99043.13;;;21.99;44.15
63903;BME280;50072;50.678;13.938;2023-08-31T11:44:18;99046.13;;;23.25;42.69
63903;BME280;50072;50.678;13.938;2023-08-31T11:46:46;99040.16;;;25.40;36.36
63903;BME280;50072;50.678;13.938;2023-08-31T11:49:19;99036.00;;;26.47;35.15
63903;BME280;50072;50.678;13.938;2023-08-31T11:51:48;99046.16;;;23.87;38.10
63903;BME280;50072;50.678;13.938;2023-08-31T11:54:17;99042.91;;;22.78;42.16
63903;BME280;50072;50.678;13.938;2023-08-31T11:56:45;99050.50;;;22.31;44.26
63903;BME280;50072;50.678;13.938;2023-08-31T11:59:18;99043.88;;;25.49;39.36
63903;BME280;50072;50.678;13.938;2023-08-31T12:01:49;99050.84;;;27.61;34.90
63903;BME280;50072;50.678;13.938;2023-08-31T12:04:22;99039.22;;;29.43;32.10
63903;BME280;50072;50.678;13.938;2023-08-31T12:06:52;99044.28;;;31.05;30.26
63903;BME280;50072;50.678;13.938;2023-08-31T12:09:22;99035.41;;;32.23;27.77
63903;BME280;50072;50.678;13.938;2023-08-31T12:11:51;99045.22;;;32.25;27.00
63903;BME280;50072;50.678;13.938;2023-08-31T12:16:45;99021.09;;;32.19;27.11
63903;BME280;50072;50.678;13.938;2023-08-31T12:19:12;99022.97;;;33.20;26.66
63903;BME280;50072;50.678;13.938;2023-08-31T12:21:39;99012.75;;;34.26;24.61
63903;BME280;50072;50.678;13.938;2023-08-31T12:24:07;99033.53;;;32.81;25.06
63903;BME280;50072;50.678;13.938;2023-08-31T12:26:34;99043.31;;;32.62;26.35
63903;BME280;50072;50.678;13.938;2023-08-31T12:29:03;99036.03;;;32.76;26.22
63903;BME280;50072;50.678;13.938;2023-08-31T12:31:33;99035.19;;;30.19;29.04
63903;BME280;50072;50.678;13.938;2023-08-31T12:34:00;99041.16;;;26.78;32.93
63903;BME280;50072;50.678;13.938;2023-08-31T12:36:26;99040.81;;;24.85;36.28
63903;BME280;50072;50.678;13.938;2023-08-31T12:38:53;99031.47;;;23.05;39.41
63903;BME280;50072;50.678;13.938;2023-08-31T12:41:20;99034.97;;;21.99;42.79
63903;BME280;50072;50.678;13.938;2023-08-31T12:43:48;99036.00;;;21.86;44.09
63903;BME280;50072;50.678;13.938;2023-08-31T12:46:13;99037.63;;;21.78;68.75
63903;BME280;50072;50.678;13.938;2023-08-31T12:48:41;99050.94;;;23.74;66.82
63903;BME280;50072;50.678;13.938;2023-08-31T12:51:08;99046.47;;;26.16;50.14
63903;BME280;50072;50.678;13.938;2023-08-31T12:53:38;99041.59;;;27.70;45.50
63903;BME280;50072;50.678;13.938;2023-08-31T12:56:08;99054.28;;;27.63;38.28
63903;BME280;50072;50.678;13.938;2023-08-31T12:58:35;99037.91;;;28.22;36.09
63903;BME280;50072;50.678;13.938;2023-08-31T13:01:01;99045.03;;;29.57;36.15